sensor_id;sensor_type;location;lat;lon;timestamp;P1;durP1;ratioP1;P2;durP2;ratioP2
7383;SDS011;3733;47.994;8.820;2022-12-07T00:03:46;9.97;;;5.40;;
7383;SDS011;3733;47.994;8.820;2022-12-07T00:06:14;11.63;;;5.97;;
7383;SDS011;3733;47.994;8.820;2022-12-07T00:08:41;11.17;;;5.43;;
7383;SDS011;3733;47.994;8.820;2022-12-07T00:11:08;11.27;;;5.63;;
7383;SDS011;3733;47.994;8.820;2022-12-07T00:13:36;12.60;;;5.73;;
7383;SDS011;3733;47.994;8.820;2022-12-07T00:16:12;8.30;;;5.40;;
7383;SDS011;3733;47.994;8.820;2022-12-07T00:18:43;13.60;;;6.70;;
7383;SDS011;3733;47.994;8.820;2022-12-07T00:21:11;13.60;;;6.13;;
7383;SDS011;3733;47.994;8.820;2022-12-07T00:23:37;10.17;;;5.80;;
7383;SDS011;3733;47.994;8.820;2022-12-07T00:26:07;13.40;;;6.70;;
7383;SDS011;3733;47.994;8.820;2022-12-07T00:28:35;11.50;;;6.60;;
7383;SDS011;3733;47.994;8.820;2022-12-07T00:31:05;12.27;;;6.37;;
7383;SDS011;3733;47.994;8.820;2022-12-07T00:33:35;12.13;;;6.50;;
7383;SDS011;3733;47.994;8.820;2022-12-07T00:36:03;10.90;;;6.20;;
7383;SDS011;3733;47.994;8.820;2022-12-07T00:38:32;14.00;;;7.27;;
7383;SDS011;3733;47.994;8.820;2022-12-07T00:41:01;16.53;;;7.73;;
7383;SDS011;3733;47.994;8.820;2022-12-07T00:43:29;12.50;;;6.07;;
7383;SDS011;3733;47.994;8.820;2022-12-07T00:45:55;13.50;;;6.80;;
7383;SDS011;3733;47.994;8.820;2022-12-07T00:48:21;12.70;;;5.80;;
7383;SDS011;3733;47.994;8.820;2022-12-07T00:50:47;12.90;;;7.10;;
7383;SDS011;3733;47.994;8.820;2022-12-07T00:53:13;11.20;;;7.20;;
7383;SDS011;3733;47.994;8.820;2022-12-07T00:55:39;10.63;;;6.60;;
7383;SDS011;3733;47.994;8.820;2022-12-07T00:58:05;13.53;;;6.50;;
7383;SDS011;3733;47.994;8.820;2022-12-07T01:00:31;9.70;;;5.87;;
7383;SDS011;3733;47.994;8.820;2022-12-07T01:02:58;11.67;;;6.83;;
7383;SDS011;3733;47.994;8.820;2022-12-07T01:05:24;8.93;;;5.17;;
7383;SDS011;3733;47.994;8.820;2022-12-07T01:07:50;12.93;;;6.57;;
7383;SDS011;3733;47.994;8.820;2022-12-07T01:10:15;10.10;;;6.00;;
7383;SDS011;3733;47.994;8.820;2022-12-07T01:12:41;10.77;;;6.23;;
7383;SDS011;3733;47.994;8.820;2022-12-07T01:15:07;9.57;;;6.37;;
7383;SDS011;3733;47.994;8.820;2022-12-07T01:17:33;13.73;;;6.53;;
7383;SDS011;3733;47.994;8.820;2022-12-07T01:19:59;10.63;;;6.00;;
7383;SDS011;3733;47.994;8.820;2022-12-07T01:22:25;13.10;;;7.20;;
7383;SDS011;3733;47.994;8.820;2022-12-07T01:24:51;13.27;;;7.00;;
7383;SDS011;3733;47.994;8.820;2022-12-07T01:27:17;10.50;;;6.40;;
7383;SDS011;3733;47.994;8.820;2022-12-07T01:29:42;13.40;;;6.90;;
7383;SDS011;3733;47.994;8.820;2022-12-07T01:32:08;12.90;;;6.57;;
7383;SDS011;3733;47.994;8.820;2022-12-07T01:34:33;12.73;;;6.50;;
7383;SDS011;3733;47.994;8.820;2022-12-07T01:36:59;9.97;;;6.27;;
7383;SDS011;3733;47.994;8.820;2022-12-07T01:39:24;11.40;;;6.90;;
7383;SDS011;3733;47.994;8.820;2022-12-07T01:41:51;9.27;;;5.37;;
7383;SDS011;3733;47.994;8.820;2022-12-07T01:46:51;13.00;;;6.03;;
7383;SDS011;3733;47.994;8.820;2022-12-07T01:51:49;12.03;;;5.87;;
7383;SDS011;3733;47.994;8.820;2022-12-07T01:54:17;7.87;;;4.80;;
7383;SDS011;3733;47.994;8.820;2022-12-07T01:56:47;10.00;;;5.47;;
7383;SDS011;3733;47.994;8.820;2022-12-07T01:59:17;10.57;;;5.33;;
7383;SDS011;3733;47.994;8.820;2022-12-07T02:01:46;8.50;;;5.20;;
7383;SDS011;3733;47.994;8.820;2022-12-07T02:04:12;9.50;;;5.53;;
7383;SDS011;3733;47.994;8.820;2022-12-07T02:06:37;10.07;;;6.03;;
7383;SDS011;3733;47.994;8.820;2022-12-07T02:09:04;8.90;;;5.30;;
7383;SDS011;3733;47.994;8.820;2022-12-07T02:11:30;9.20;;;5.20;;
7383;SDS011;3733;47.994;8.820;2022-12-07T02:13:56;8.63;;;5.10;;
7383;SDS011;3733;47.994;8.820;2022-12-07T02:24:45;10.13;;;5.50;;
7383;SDS011;3733;47.994;8.820;2022-12-07T02:35:07;9.53;;;5.30;;
7383;SDS011;3733;47.994;8.820;2022-12-07T02:43:17;8.37;;;4.70;;
7383;SDS011;3733;47.994;8.820;2022-12-07T02:45:56;8.53;;;4.30;;
7383;SDS011;3733;47.994;8.820;2022-12-07T02:48:26;5.67;;;3.90;;
7383;SDS011;3733;47.994;8.820;2022-12-07T02:50:53;5.03;;;3.50;;
7383;SDS011;3733;47.994;8.820;2022-12-07T02:56:11;6.43;;;3.90;;
7383;SDS011;3733;47.994;8.820;2022-12-07T02:59:02;5.60;;;3.57;;
7383;SDS011;3733;47.994;8.820;2022-12-07T03:01:57;5.40;;;3.67;;
7383;SDS011;3733;47.994;8.820;2022-12-07T03:16:16;7.93;;;4.47;;
7383;SDS011;3733;47.994;8.820;2022-12-07T03:18:56;8.17;;;4.60;;
7383;SDS011;3733;47.994;8.820;2022-12-07T03:21:26;14.03;;;4.60;;
7383;SDS011;3733;47.994;8.820;2022-12-07T03:23:56;5.80;;;4.33;;
7383;SDS011;3733;47.994;8.820;2022-12-07T03:26:30;7.63;;;4.57;;
7383;SDS011;3733;47.994;8.820;2022-12-07T03:28:59;7.50;;;4.33;;
7383;SDS011;3733;47.994;8.820;2022-12-07T03:31:33;5.93;;;3.43;;
7383;SDS011;3733;47.994;8.820;2022-12-07T03:34:07;7.00;;;4.23;;
7383;SDS011;3733;47.994;8.820;2022-12-07T03:36:45;8.77;;;4.70;;
7383;SDS011;3733;47.994;8.820;2022-12-07T03:42:02;6.80;;;4.20;;
7383;SDS011;3733;47.994;8.820;2022-12-07T03:44:30;9.50;;;4.50;;
7383;SDS011;3733;47.994;8.820;2022-12-07T03:47:01;6.23;;;4.10;;
7383;SDS011;3733;47.994;8.820;2022-12-07T03:49:43;4.20;;;3.20;;
7383;SDS011;3733;47.994;8.820;2022-12-07T03:52:42;5.47;;;3.60;;
7383;SDS011;3733;47.994;8.820;2022-12-07T03:55:22;6.87;;;4.00;;
7383;SDS011;3733;47.994;8.820;2022-12-07T03:58:04;8.60;;;4.67;;
7383;SDS011;3733;47.994;8.820;2022-12-07T04:00:33;8.43;;;4.70;;
7383;SDS011;3733;47.994;8.820;2022-12-07T04:03:00;4.40;;;3.30;;
7383;SDS011;3733;47.994;8.820;2022-12-07T04:05:25;4.90;;;3.60;;
7383;SDS011;3733;47.994;8.820;2022-12-07T04:07:51;3.90;;;2.97;;
7383;SDS011;3733;47.994;8.820;2022-12-07T04:10:17;3.73;;;2.90;;
7383;SDS011;3733;47.994;8.820;2022-12-07T04:12:43;4.80;;;3.87;;
7383;SDS011;3733;47.994;8.820;2022-12-07T04:15:09;5.40;;;4.20;;
7383;SDS011;3733;47.994;8.820;2022-12-07T04:17:35;7.50;;;4.27;;
7383;SDS011;3733;47.994;8.820;2022-12-07T04:20:01;5.50;;;3.50;;
7383;SDS011;3733;47.994;8.820;2022-12-07T04:22:28;6.83;;;4.10;;
7383;SDS011;3733;47.994;8.820;2022-12-07T04:24:54;6.40;;;4.07;;
7383;SDS011;3733;47.994;8.820;2022-12-07T04:27:20;8.13;;;4.73;;
7383;SDS011;3733;47.994;8.820;2022-12-07T04:29:45;5.57;;;4.00;;
7383;SDS011;3733;47.994;8.820;2022-12-07T04:32:11;6.53;;;4.30;;
7383;SDS011;3733;47.994;8.820;2022-12-07T04:34:36;7.10;;;4.13;;
7383;SDS011;3733;47.994;8.820;2022-12-07T04:37:02;7.93;;;4.30;;
7383;SDS011;3733;47.994;8.820;2022-12-07T04:39:28;7.27;;;4.10;;
7383;SDS011;3733;47.994;8.820;2022-12-07T04:41:56;5.10;;;3.90;;
7383;SDS011;3733;47.994;8.820;2022-12-07T04:44:23;6.03;;;3.77;;
7383;SDS011;3733;47.994;8.820;2022-12-07T04:46:49;5.87;;;3.97;;
7383;SDS011;3733;47.994;8.820;2022-12-07T04:49:16;7.07;;;4.73;;
7383;SDS011;3733;47.994;8.820;2022-12-07T04:51:42;7.73;;;4.67;;
7383;SDS011;3733;47.994;8.820;2022-12-07T04:54:08;7.80;;;5.00;;
7383;SDS011;3733;47.994;8.820;2022-12-07T04:56:34;7.10;;;4.50;;
7383;SDS011;3733;47.994;8.820;2022-12-07T04:59:00;7.93;;;4.60;;
7383;SDS011;3733;47.994;8.820;2022-12-07T05:01:27;10.63;;;5.20;;
7383;SDS011;3733;47.994;8.820;2022-12-07T05:03:52;6.80;;;4.87;;
7383;SDS011;3733;47.994;8.820;2022-12-07T05:06:18;8.33;;;4.63;;
7383;SDS011;3733;47.994;8.820;2022-12-07T05:08:44;7.23;;;4.57;;
7383;SDS011;3733;47.994;8.820;2022-12-07T05:11:10;8.37;;;5.13;;
7383;SDS011;3733;47.994;8.820;2022-12-07T05:13:58;10.80;;;6.13;;
7383;SDS011;3733;47.994;8.820;2022-12-07T05:16:24;7.63;;;5.00;;
7383;SDS011;3733;47.994;8.820;2022-12-07T05:18:50;7.83;;;4.80;;
7383;SDS011;3733;47.994;8.820;2022-12-07T05:21:16;9.00;;;5.53;;
7383;SDS011;3733;47.994;8.820;2022-12-07T05:23:41;7.37;;;5.30;;
7383;SDS011;3733;47.994;8.820;2022-12-07T05:26:07;9.00;;;5.50;;
7383;SDS011;3733;47.994;8.820;2022-12-07T05:28:33;8.37;;;5.30;;
7383;SDS011;3733;47.994;8.820;2022-12-07T05:30:58;6.83;;;4.60;;
7383;SDS011;3733;47.994;8.820;2022-12-07T05:33:24;6.57;;;4.33;;
7383;SDS011;3733;47.994;8.820;2022-12-07T05:35:49;8.57;;;4.60;;
7383;SDS011;3733;47.994;8.820;2022-12-07T05:38:15;7.47;;;5.10;;
7383;SDS011;3733;47.994;8.820;2022-12-07T05:40:40;7.03;;;5.20;;
7383;SDS011;3733;47.994;8.820;2022-12-07T05:43:06;6.50;;;4.83;;
7383;SDS011;3733;47.994;8.820;2022-12-07T05:45:32;5.83;;;4.40;;
7383;SDS011;3733;47.994;8.820;2022-12-07T05:47:57;6.53;;;4.60;;
7383;SDS011;3733;47.994;8.820;2022-12-07T05:50:23;7.90;;;4.80;;
7383;SDS011;3733;47.994;8.820;2022-12-07T05:52:49;5.27;;;4.40;;
7383;SDS011;3733;47.994;8.820;2022-12-07T05:55:14;9.50;;;5.43;;
7383;SDS011;3733;47.994;8.820;2022-12-07T05:57:40;8.43;;;5.37;;
7383;SDS011;3733;47.994;8.820;2022-12-07T06:00:25;7.17;;;5.23;;
7383;SDS011;3733;47.994;8.820;2022-12-07T06:02:51;8.90;;;5.37;;
7383;SDS011;3733;47.994;8.820;2022-12-07T06:05:17;8.27;;;5.27;;
7383;SDS011;3733;47.994;8.820;2022-12-07T06:07:42;9.93;;;6.90;;
7383;SDS011;3733;47.994;8.820;2022-12-07T06:10:08;7.20;;;5.47;;
7383;SDS011;3733;47.994;8.820;2022-12-07T06:12:34;10.87;;;6.50;;
7383;SDS011;3733;47.994;8.820;2022-12-07T06:14:59;8.53;;;5.47;;
7383;SDS011;3733;47.994;8.820;2022-12-07T06:17:25;7.00;;;5.67;;
7383;SDS011;3733;47.994;8.820;2022-12-07T06:19:51;9.13;;;5.53;;
7383;SDS011;3733;47.994;8.820;2022-12-07T06:22:17;9.50;;;5.77;;
7383;SDS011;3733;47.994;8.820;2022-12-07T06:24:43;11.07;;;6.70;;
7383;SDS011;3733;47.994;8.820;2022-12-07T06:27:09;9.87;;;6.27;;
7383;SDS011;3733;47.994;8.820;2022-12-07T06:29:35;9.70;;;6.70;;
7383;SDS011;3733;47.994;8.820;2022-12-07T06:32:00;8.40;;;5.83;;
7383;SDS011;3733;47.994;8.820;2022-12-07T06:34:26;7.40;;;5.20;;
7383;SDS011;3733;47.994;8.820;2022-12-07T06:36:52;6.23;;;4.90;;
7383;SDS011;3733;47.994;8.820;2022-12-07T06:39:21;8.30;;;5.40;;
7383;SDS011;3733;47.994;8.820;2022-12-07T06:41:48;8.47;;;5.87;;
7383;SDS011;3733;47.994;8.820;2022-12-07T06:44:14;9.07;;;5.13;;
7383;SDS011;3733;47.994;8.820;2022-12-07T06:46:40;7.90;;;5.57;;
7383;SDS011;3733;47.994;8.820;2022-12-07T06:49:06;6.97;;;5.70;;
7383;SDS011;3733;47.994;8.820;2022-12-07T06:51:32;11.00;;;7.20;;
7383;SDS011;3733;47.994;8.820;2022-12-07T06:54:01;13.07;;;7.20;;
7383;SDS011;3733;47.994;8.820;2022-12-07T06:56:28;11.60;;;6.40;;
7383;SDS011;3733;47.994;8.820;2022-12-07T06:58:53;11.73;;;7.67;;
7383;SDS011;3733;47.994;8.820;2022-12-07T07:01:19;10.07;;;6.73;;
7383;SDS011;3733;47.994;8.820;2022-12-07T07:03:46;10.37;;;7.00;;
7383;SDS011;3733;47.994;8.820;2022-12-07T07:06:12;14.40;;;8.53;;
7383;SDS011;3733;47.994;8.820;2022-12-07T07:08:39;14.63;;;8.70;;
7383;SDS011;3733;47.994;8.820;2022-12-07T07:11:05;13.63;;;7.03;;
7383;SDS011;3733;47.994;8.820;2022-12-07T07:13:31;11.83;;;7.10;;
7383;SDS011;3733;47.994;8.820;2022-12-07T07:15:57;10.57;;;7.10;;
7383;SDS011;3733;47.994;8.820;2022-12-07T07:18:23;11.30;;;6.30;;
7383;SDS011;3733;47.994;8.820;2022-12-07T07:20:50;9.20;;;6.50;;
7383;SDS011;3733;47.994;8.820;2022-12-07T07:23:16;10.83;;;6.63;;
7383;SDS011;3733;47.994;8.820;2022-12-07T07:25:42;13.10;;;7.90;;
7383;SDS011;3733;47.994;8.820;2022-12-07T07:28:08;11.27;;;7.43;;
7383;SDS011;3733;47.994;8.820;2022-12-07T07:30:34;11.83;;;7.57;;
7383;SDS011;3733;47.994;8.820;2022-12-07T07:33:00;12.10;;;6.80;;
7383;SDS011;3733;47.994;8.820;2022-12-07T07:35:27;9.60;;;6.20;;
7383;SDS011;3733;47.994;8.820;2022-12-07T07:37:54;21.60;;;6.53;;
7383;SDS011;3733;47.994;8.820;2022-12-07T07:40:20;13.80;;;6.80;;
7383;SDS011;3733;47.994;8.820;2022-12-07T07:42:47;6.83;;;4.43;;
7383;SDS011;3733;47.994;8.820;2022-12-07T07:45:13;7.73;;;4.20;;
7383;SDS011;3733;47.994;8.820;2022-12-07T07:47:39;6.37;;;4.50;;
7383;SDS011;3733;47.994;8.820;2022-12-07T07:50:05;6.17;;;4.33;;
7383;SDS011;3733;47.994;8.820;2022-12-07T07:52:31;6.73;;;4.80;;
7383;SDS011;3733;47.994;8.820;2022-12-07T07:54:57;8.30;;;4.50;;
7383;SDS011;3733;47.994;8.820;2022-12-07T07:57:22;7.83;;;5.20;;
7383;SDS011;3733;47.994;8.820;2022-12-07T07:59:48;9.97;;;5.83;;
7383;SDS011;3733;47.994;8.820;2022-12-07T08:02:14;8.70;;;6.13;;
7383;SDS011;3733;47.994;8.820;2022-12-07T08:04:42;7.40;;;5.30;;
7383;SDS011;3733;47.994;8.820;2022-12-07T08:07:09;9.97;;;6.37;;
7383;SDS011;3733;47.994;8.820;2022-12-07T08:09:35;10.10;;;6.03;;
7383;SDS011;3733;47.994;8.820;2022-12-07T08:12:00;7.87;;;5.47;;
7383;SDS011;3733;47.994;8.820;2022-12-07T08:14:26;8.90;;;6.00;;
7383;SDS011;3733;47.994;8.820;2022-12-07T08:16:53;9.50;;;6.33;;
7383;SDS011;3733;47.994;8.820;2022-12-07T08:19:19;9.47;;;6.03;;
7383;SDS011;3733;47.994;8.820;2022-12-07T08:21:45;12.10;;;7.23;;
7383;SDS011;3733;47.994;8.820;2022-12-07T08:24:10;11.07;;;6.80;;
7383;SDS011;3733;47.994;8.820;2022-12-07T08:26:36;10.73;;;5.90;;
7383;SDS011;3733;47.994;8.820;2022-12-07T08:29:02;9.10;;;5.93;;
7383;SDS011;3733;47.994;8.820;2022-12-07T08:31:28;9.93;;;5.93;;
7383;SDS011;3733;47.994;8.820;2022-12-07T08:33:54;12.13;;;7.57;;
7383;SDS011;3733;47.994;8.820;2022-12-07T08:36:20;16.60;;;9.23;;
7383;SDS011;3733;47.994;8.820;2022-12-07T08:38:47;18.93;;;11.10;;
7383;SDS011;3733;47.994;8.820;2022-12-07T08:41:13;11.90;;;8.10;;
7383;SDS011;3733;47.994;8.820;2022-12-07T08:43:39;10.10;;;7.13;;
7383;SDS011;3733;47.994;8.820;2022-12-07T08:48:36;10.83;;;6.90;;
7383;SDS011;3733;47.994;8.820;2022-12-07T08:51:08;10.37;;;7.17;;
7383;SDS011;3733;47.994;8.820;2022-12-07T08:53:34;12.67;;;6.93;;
7383;SDS011;3733;47.994;8.820;2022-12-07T08:56:01;13.20;;;8.10;;
7383;SDS011;3733;47.994;8.820;2022-12-07T08:58:27;13.30;;;7.47;;
7383;SDS011;3733;47.994;8.820;2022-12-07T09:00:53;11.43;;;7.47;;
7383;SDS011;3733;47.994;8.820;2022-12-07T09:03:18;14.80;;;8.57;;
7383;SDS011;3733;47.994;8.820;2022-12-07T09:05:44;14.20;;;8.50;;
7383;SDS011;3733;47.994;8.820;2022-12-07T09:08:09;9.60;;;6.37;;
7383;SDS011;3733;47.994;8.820;2022-12-07T09:10:35;11.47;;;7.07;;
7383;SDS011;3733;47.994;8.820;2022-12-07T09:13:01;13.90;;;7.40;;
7383;SDS011;3733;47.994;8.820;2022-12-07T09:15:27;7.40;;;5.13;;
7383;SDS011;3733;47.994;8.820;2022-12-07T09:17:54;10.33;;;5.93;;
7383;SDS011;3733;47.994;8.820;2022-12-07T09:20:19;13.90;;;7.40;;
7383;SDS011;3733;47.994;8.820;2022-12-07T09:22:45;13.20;;;6.50;;
7383;SDS011;3733;47.994;8.820;2022-12-07T09:25:11;11.30;;;6.33;;
7383;SDS011;3733;47.994;8.820;2022-12-07T09:27:36;15.27;;;6.73;;
7383;SDS011;3733;47.994;8.820;2022-12-07T09:30:02;9.10;;;6.20;;
7383;SDS011;3733;47.994;8.820;2022-12-07T09:32:29;11.97;;;6.50;;
7383;SDS011;3733;47.994;8.820;2022-12-07T09:34:54;11.07;;;6.47;;
7383;SDS011;3733;47.994;8.820;2022-12-07T09:37:20;12.37;;;7.17;;
7383;SDS011;3733;47.994;8.820;2022-12-07T09:39:46;10.20;;;5.90;;
7383;SDS011;3733;47.994;8.820;2022-12-07T09:42:17;9.60;;;6.00;;
7383;SDS011;3733;47.994;8.820;2022-12-07T09:44:57;10.30;;;5.80;;
7383;SDS011;3733;47.994;8.820;2022-12-07T09:47:23;7.93;;;5.23;;
7383;SDS011;3733;47.994;8.820;2022-12-07T09:49:49;9.73;;;5.67;;
7383;SDS011;3733;47.994;8.820;2022-12-07T09:52:25;10.40;;;6.00;;
7383;SDS011;3733;47.994;8.820;2022-12-07T09:54:53;9.17;;;5.67;;
7383;SDS011;3733;47.994;8.820;2022-12-07T09:57:20;9.30;;;5.80;;
7383;SDS011;3733;47.994;8.820;2022-12-07T09:59:57;7.50;;;5.07;;
7383;SDS011;3733;47.994;8.820;2022-12-07T10:05:04;9.40;;;5.80;;
7383;SDS011;3733;47.994;8.820;2022-12-07T10:07:31;9.40;;;6.00;;
7383;SDS011;3733;47.994;8.820;2022-12-07T10:09:57;10.20;;;5.50;;
7383;SDS011;3733;47.994;8.820;2022-12-07T10:12:23;8.97;;;6.10;;
7383;SDS011;3733;47.994;8.820;2022-12-07T10:14:56;10.50;;;5.77;;
7383;SDS011;3733;47.994;8.820;2022-12-07T10:17:38;6.80;;;5.07;;
7383;SDS011;3733;47.994;8.820;2022-12-07T10:22:37;9.00;;;5.70;;
7383;SDS011;3733;47.994;8.820;2022-12-07T10:25:09;14.40;;;5.90;;
7383;SDS011;3733;47.994;8.820;2022-12-07T10:27:44;10.60;;;6.20;;
7383;SDS011;3733;47.994;8.820;2022-12-07T10:30:58;9.50;;;6.57;;
7383;SDS011;3733;47.994;8.820;2022-12-07T10:33:48;13.30;;;7.60;;
7383;SDS011;3733;47.994;8.820;2022-12-07T10:36:19;9.00;;;6.27;;
7383;SDS011;3733;47.994;8.820;2022-12-07T10:41:27;14.47;;;7.63;;
7383;SDS011;3733;47.994;8.820;2022-12-07T10:43:54;12.93;;;7.53;;
7383;SDS011;3733;47.994;8.820;2022-12-07T10:51:58;10.07;;;7.10;;
7383;SDS011;3733;47.994;8.820;2022-12-07T10:54:42;11.07;;;6.57;;
7383;SDS011;3733;47.994;8.820;2022-12-07T11:05:42;13.50;;;6.97;;
7383;SDS011;3733;47.994;8.820;2022-12-07T11:08:39;9.63;;;6.50;;
7383;SDS011;3733;47.994;8.820;2022-12-07T11:13:48;13.97;;;6.40;;
7383;SDS011;3733;47.994;8.820;2022-12-07T11:22:51;9.70;;;5.60;;
7383;SDS011;3733;47.994;8.820;2022-12-07T11:38:54;5.57;;;3.83;;
7383;SDS011;3733;47.994;8.820;2022-12-07T11:41:37;5.43;;;4.20;;
7383;SDS011;3733;47.994;8.820;2022-12-07T11:44:07;6.90;;;4.27;;
7383;SDS011;3733;47.994;8.820;2022-12-07T11:49:33;6.30;;;3.90;;
7383;SDS011;3733;47.994;8.820;2022-12-07T11:52:03;4.63;;;3.60;;
7383;SDS011;3733;47.994;8.820;2022-12-07T11:54:39;5.67;;;4.17;;
7383;SDS011;3733;47.994;8.820;2022-12-07T11:57:12;5.33;;;3.70;;
7383;SDS011;3733;47.994;8.820;2022-12-07T11:59:57;5.20;;;3.93;;
7383;SDS011;3733;47.994;8.820;2022-12-07T12:02:28;5.30;;;3.47;;
7383;SDS011;3733;47.994;8.820;2022-12-07T12:05:15;3.07;;;2.73;;
7383;SDS011;3733;47.994;8.820;2022-12-07T12:07:43;3.93;;;2.80;;
7383;SDS011;3733;47.994;8.820;2022-12-07T12:13:51;4.43;;;3.40;;
7383;SDS011;3733;47.994;8.820;2022-12-07T12:21:15;5.30;;;3.40;;
7383;SDS011;3733;47.994;8.820;2022-12-07T12:23:48;5.57;;;3.40;;
7383;SDS011;3733;47.994;8.820;2022-12-07T12:26:17;5.60;;;4.07;;
7383;SDS011;3733;47.994;8.820;2022-12-07T12:33:56;5.93;;;3.77;;
7383;SDS011;3733;47.994;8.820;2022-12-07T12:54:18;9.83;;;6.70;;
7383;SDS011;3733;47.994;8.820;2022-12-07T12:59:41;8.93;;;5.70;;
7383;SDS011;3733;47.994;8.820;2022-12-07T13:05:03;12.27;;;6.23;;
7383;SDS011;3733;47.994;8.820;2022-12-07T13:15:50;11.73;;;5.33;;
7383;SDS011;3733;47.994;8.820;2022-12-07T13:18:23;8.90;;;5.97;;
7383;SDS011;3733;47.994;8.820;2022-12-07T13:20:59;7.30;;;4.97;;
7383;SDS011;3733;47.994;8.820;2022-12-07T13:26:22;8.90;;;5.87;;
7383;SDS011;3733;47.994;8.820;2022-12-07T13:34:31;11.73;;;6.20;;
7383;SDS011;3733;47.994;8.820;2022-12-07T13:37:10;10.80;;;6.30;;
7383;SDS011;3733;47.994;8.820;2022-12-07T13:39:56;10.07;;;6.30;;
7383;SDS011;3733;47.994;8.820;2022-12-07T13:42:25;10.83;;;5.33;;
7383;SDS011;3733;47.994;8.820;2022-12-07T13:44:51;10.00;;;6.47;;
7383;SDS011;3733;47.994;8.820;2022-12-07T13:47:19;8.73;;;5.63;;
7383;SDS011;3733;47.994;8.820;2022-12-07T13:50:00;10.33;;;5.77;;
7383;SDS011;3733;47.994;8.820;2022-12-07T13:52:27;9.73;;;5.50;;
7383;SDS011;3733;47.994;8.820;2022-12-07T13:57:22;13.40;;;5.33;;
7383;SDS011;3733;47.994;8.820;2022-12-07T13:59:50;10.33;;;5.87;;
7383;SDS011;3733;47.994;8.820;2022-12-07T14:02:26;9.47;;;5.90;;
7383;SDS011;3733;47.994;8.820;2022-12-07T14:07:48;14.20;;;6.30;;
7383;SDS011;3733;47.994;8.820;2022-12-07T14:13:01;10.83;;;5.80;;
7383;SDS011;3733;47.994;8.820;2022-12-07T14:15:29;10.57;;;5.40;;
7383;SDS011;3733;47.994;8.820;2022-12-07T14:17:57;7.87;;;5.30;;
7383;SDS011;3733;47.994;8.820;2022-12-07T14:20:36;10.93;;;6.07;;
7383;SDS011;3733;47.994;8.820;2022-12-07T14:23:03;8.97;;;5.70;;
7383;SDS011;3733;47.994;8.820;2022-12-07T14:25:45;11.00;;;5.90;;
7383;SDS011;3733;47.994;8.820;2022-12-07T14:28:34;11.83;;;5.90;;
7383;SDS011;3733;47.994;8.820;2022-12-07T14:31:00;9.77;;;5.50;;
7383;SDS011;3733;47.994;8.820;2022-12-07T14:33:26;10.10;;;6.13;;
7383;SDS011;3733;47.994;8.820;2022-12-07T14:35:53;11.97;;;7.20;;
7383;SDS011;3733;47.994;8.820;2022-12-07T14:38:23;12.83;;;7.43;;
7383;SDS011;3733;47.994;8.820;2022-12-07T14:40:50;13.63;;;7.10;;
7383;SDS011;3733;47.994;8.820;2022-12-07T14:43:17;11.47;;;6.03;;
7383;SDS011;3733;47.994;8.820;2022-12-07T14:45:43;9.17;;;5.50;;
7383;SDS011;3733;47.994;8.820;2022-12-07T14:48:13;12.80;;;6.43;;
7383;SDS011;3733;47.994;8.820;2022-12-07T14:50:48;11.10;;;6.67;;
7383;SDS011;3733;47.994;8.820;2022-12-07T14:53:17;10.67;;;6.27;;
7383;SDS011;3733;47.994;8.820;2022-12-07T14:55:54;14.10;;;5.00;;
7383;SDS011;3733;47.994;8.820;2022-12-07T14:58:20;4.83;;;3.73;;
7383;SDS011;3733;47.994;8.820;2022-12-07T15:00:45;6.87;;;3.83;;
7383;SDS011;3733;47.994;8.820;2022-12-07T15:03:12;5.20;;;3.60;;
7383;SDS011;3733;47.994;8.820;2022-12-07T15:05:39;5.83;;;4.07;;
7383;SDS011;3733;47.994;8.820;2022-12-07T15:08:06;5.63;;;3.70;;
7383;SDS011;3733;47.994;8.820;2022-12-07T15:10:33;7.20;;;3.83;;
7383;SDS011;3733;47.994;8.820;2022-12-07T15:13:00;5.40;;;3.40;;
7383;SDS011;3733;47.994;8.820;2022-12-07T15:15:46;6.73;;;3.70;;
7383;SDS011;3733;47.994;8.820;2022-12-07T15:18:12;4.87;;;3.50;;
7383;SDS011;3733;47.994;8.820;2022-12-07T15:20:38;10.03;;;5.33;;
7383;SDS011;3733;47.994;8.820;2022-12-07T15:23:04;10.17;;;6.10;;
7383;SDS011;3733;47.994;8.820;2022-12-07T15:25:30;10.83;;;6.40;;
7383;SDS011;3733;47.994;8.820;2022-12-07T15:27:55;16.43;;;6.17;;
7383;SDS011;3733;47.994;8.820;2022-12-07T15:30:21;10.23;;;5.47;;
7383;SDS011;3733;47.994;8.820;2022-12-07T15:32:50;8.80;;;5.87;;
7383;SDS011;3733;47.994;8.820;2022-12-07T15:35:16;9.03;;;5.03;;
7383;SDS011;3733;47.994;8.820;2022-12-07T15:37:41;10.90;;;6.33;;
7383;SDS011;3733;47.994;8.820;2022-12-07T15:40:07;12.80;;;6.60;;
7383;SDS011;3733;47.994;8.820;2022-12-07T15:42:35;7.47;;;4.77;;
7383;SDS011;3733;47.994;8.820;2022-12-07T15:45:01;13.47;;;6.27;;
7383;SDS011;3733;47.994;8.820;2022-12-07T15:47:40;11.27;;;5.47;;
7383;SDS011;3733;47.994;8.820;2022-12-07T15:50:08;13.57;;;6.50;;
7383;SDS011;3733;47.994;8.820;2022-12-07T15:52:36;13.00;;;6.77;;
7383;SDS011;3733;47.994;8.820;2022-12-07T15:55:02;8.63;;;5.83;;
7383;SDS011;3733;47.994;8.820;2022-12-07T15:57:32;8.13;;;5.20;;
7383;SDS011;3733;47.994;8.820;2022-12-07T15:59:58;10.47;;;4.60;;
7383;SDS011;3733;47.994;8.820;2022-12-07T16:02:24;10.60;;;5.47;;
7383;SDS011;3733;47.994;8.820;2022-12-07T16:04:50;7.93;;;4.87;;
7383;SDS011;3733;47.994;8.820;2022-12-07T16:07:16;12.10;;;5.40;;
7383;SDS011;3733;47.994;8.820;2022-12-07T16:09:43;6.87;;;4.80;;
7383;SDS011;3733;47.994;8.820;2022-12-07T16:12:10;8.03;;;4.80;;
7383;SDS011;3733;47.994;8.820;2022-12-07T16:14:37;10.27;;;4.27;;
7383;SDS011;3733;47.994;8.820;2022-12-07T16:17:03;9.37;;;4.80;;
7383;SDS011;3733;47.994;8.820;2022-12-07T16:19:29;7.77;;;4.77;;
7383;SDS011;3733;47.994;8.820;2022-12-07T16:21:56;4.70;;;3.57;;
7383;SDS011;3733;47.994;8.820;2022-12-07T16:24:22;8.63;;;4.87;;
7383;SDS011;3733;47.994;8.820;2022-12-07T16:26:48;7.30;;;4.33;;
7383;SDS011;3733;47.994;8.820;2022-12-07T16:29:14;5.87;;;3.27;;
7383;SDS011;3733;47.994;8.820;2022-12-07T16:31:40;6.73;;;4.17;;
7383;SDS011;3733;47.994;8.820;2022-12-07T16:34:06;4.17;;;3.10;;
7383;SDS011;3733;47.994;8.820;2022-12-07T16:36:32;6.63;;;3.53;;
7383;SDS011;3733;47.994;8.820;2022-12-07T16:38:58;8.80;;;5.47;;
7383;SDS011;3733;47.994;8.820;2022-12-07T16:41:25;15.00;;;8.93;;
7383;SDS011;3733;47.994;8.820;2022-12-07T16:43:51;10.50;;;5.40;;
7383;SDS011;3733;47.994;8.820;2022-12-07T16:46:16;10.80;;;5.57;;
7383;SDS011;3733;47.994;8.820;2022-12-07T16:48:42;6.70;;;5.17;;
7383;SDS011;3733;47.994;8.820;2022-12-07T16:51:09;6.30;;;4.73;;
7383;SDS011;3733;47.994;8.820;2022-12-07T16:53:37;7.03;;;6.33;;
7383;SDS011;3733;47.994;8.820;2022-12-07T16:56:03;11.77;;;5.30;;
7383;SDS011;3733;47.994;8.820;2022-12-07T16:58:34;6.43;;;4.77;;
7383;SDS011;3733;47.994;8.820;2022-12-07T17:00:59;9.03;;;5.27;;
7383;SDS011;3733;47.994;8.820;2022-12-07T17:03:36;6.87;;;4.53;;
7383;SDS011;3733;47.994;8.820;2022-12-07T17:06:02;3.63;;;3.30;;
7383;SDS011;3733;47.994;8.820;2022-12-07T17:08:27;5.37;;;3.80;;
7383;SDS011;3733;47.994;8.820;2022-12-07T17:10:53;5.87;;;3.80;;
7383;SDS011;3733;47.994;8.820;2022-12-07T17:13:18;5.10;;;3.73;;
7383;SDS011;3733;47.994;8.820;2022-12-07T17:16:04;6.30;;;4.20;;
7383;SDS011;3733;47.994;8.820;2022-12-07T17:18:32;7.77;;;4.90;;
7383;SDS011;3733;47.994;8.820;2022-12-07T17:21:03;14.23;;;5.57;;
7383;SDS011;3733;47.994;8.820;2022-12-07T17:23:30;9.20;;;5.77;;
7383;SDS011;3733;47.994;8.820;2022-12-07T17:25:56;20.60;;;10.67;;
7383;SDS011;3733;47.994;8.820;2022-12-07T17:28:32;19.37;;;9.60;;
7383;SDS011;3733;47.994;8.820;2022-12-07T17:30:59;15.20;;;7.37;;
7383;SDS011;3733;47.994;8.820;2022-12-07T17:33:24;19.70;;;10.20;;
7383;SDS011;3733;47.994;8.820;2022-12-07T17:35:50;21.70;;;13.10;;
7383;SDS011;3733;47.994;8.820;2022-12-07T17:38:15;19.60;;;11.70;;
7383;SDS011;3733;47.994;8.820;2022-12-07T17:40:41;18.13;;;11.53;;
7383;SDS011;3733;47.994;8.820;2022-12-07T17:43:07;14.73;;;10.43;;
7383;SDS011;3733;47.994;8.820;2022-12-07T17:45:33;24.13;;;11.10;;
7383;SDS011;3733;47.994;8.820;2022-12-07T17:48:00;19.23;;;12.37;;
7383;SDS011;3733;47.994;8.820;2022-12-07T17:50:26;18.77;;;12.53;;
7383;SDS011;3733;47.994;8.820;2022-12-07T17:53:11;25.10;;;14.27;;
7383;SDS011;3733;47.994;8.820;2022-12-07T17:55:37;25.73;;;15.73;;